createdAt,value
2018-10-07T00:00:29.414Z,15.80
2018-10-07T00:02:59.879Z,15.80
2018-10-07T00:05:30.474Z,15.70
2018-10-07T00:08:00.911Z,15.60
2018-10-07T00:10:31.455Z,15.60
2018-10-07T00:13:01.904Z,15.60
2018-10-07T00:15:32.386Z,15.50
2018-10-07T00:18:05.512Z,15.50
2018-10-07T00:20:43.266Z,15.50
2018-10-07T00:23:13.697Z,15.40
2018-10-07T00:25:44.018Z,15.40
2018-10-07T00:28:14.313Z,15.30
2018-10-07T00:30:44.787Z,15.30
2018-10-07T00:33:15.338Z,15.30
2018-10-07T00:35:45.659Z,15.30
2018-10-07T00:38:16.016Z,15.30
2018-10-07T00:40:46.371Z,15.30
2018-10-07T00:43:17.038Z,15.30
2018-10-07T00:45:47.497Z,15.20
2018-10-07T00:48:17.939Z,15.10
2018-10-07T00:50:48.320Z,15.10
2018-10-07T00:53:19.138Z,15.10
2018-10-07T00:55:50.050Z,15.00
2018-10-07T00:58:20.372Z,15.00
2018-10-07T01:00:50.852Z,14.90
2018-10-07T01:03:21.142Z,14.90
2018-10-07T01:05:51.406Z,14.80
2018-10-07T01:08:21.767Z,14.80
2018-10-07T01:10:52.061Z,14.90
2018-10-07T01:13:22.434Z,14.80
2018-10-07T01:15:52.685Z,14.80
2018-10-07T01:18:23.106Z,14.80
2018-10-07T01:20:53.365Z,14.80
2018-10-07T01:23:23.651Z,14.70
2018-10-07T01:25:53.946Z,14.70
2018-10-07T01:28:24.274Z,14.70
2018-10-07T01:30:54.583Z,14.70
2018-10-07T01:33:25.055Z,14.60
2018-10-07T01:35:55.333Z,14.60
2018-10-07T01:38:25.650Z,14.60
2018-10-07T01:40:56.188Z,14.60
2018-10-07T01:43:26.512Z,14.60
2018-10-07T01:45:56.801Z,14.50
2018-10-07T01:48:27.130Z,14.50
2018-10-07T01:50:57.465Z,14.60
2018-10-07T01:53:27.870Z,14.60
2018-10-07T01:55:58.136Z,14.60
2018-10-07T01:58:28.451Z,14.60
2018-10-07T02:00:58.739Z,14.60
2018-10-07T02:03:29.062Z,14.60
2018-10-07T02:05:59.339Z,14.70
2018-10-07T02:08:29.610Z,14.70
2018-10-07T02:10:59.899Z,14.70
2018-10-07T02:13:30.194Z,14.70
2018-10-07T02:16:00.483Z,14.60
2018-10-07T02:18:30.791Z,14.60
2018-10-07T02:21:01.075Z,14.60
2018-10-07T02:23:31.413Z,14.50
2018-10-07T02:26:01.687Z,14.50
2018-10-07T02:28:31.989Z,14.50
2018-10-07T02:31:02.307Z,14.50
2018-10-07T02:33:32.626Z,14.50
2018-10-07T02:36:02.958Z,14.50
2018-10-07T02:38:33.268Z,14.60
2018-10-07T02:41:03.568Z,14.60
2018-10-07T02:43:34.054Z,14.60
2018-10-07T02:46:04.387Z,14.50
2018-10-07T02:48:34.865Z,14.50
2018-10-07T02:51:05.171Z,14.50
2018-10-07T02:53:35.966Z,14.50
2018-10-07T02:56:06.290Z,14.50
2018-10-07T02:58:36.918Z,14.50
2018-10-07T03:01:07.374Z,14.50
2018-10-07T03:03:37.662Z,14.50
2018-10-07T03:06:07.992Z,14.60
2018-10-07T03:08:38.288Z,14.60
2018-10-07T03:11:08.574Z,14.70
2018-10-07T03:13:38.890Z,14.70
2018-10-07T03:16:09.155Z,14.60
2018-10-07T03:18:39.483Z,14.70
2018-10-07T03:21:09.789Z,14.70
2018-10-07T03:23:40.112Z,14.60
2018-10-07T03:26:10.430Z,14.70
2018-10-07T03:28:40.886Z,14.60
2018-10-07T03:31:11.732Z,14.60
2018-10-07T03:33:42.066Z,14.60
2018-10-07T03:36:12.842Z,14.60
2018-10-07T03:38:43.151Z,14.60
2018-10-07T03:41:13.555Z,14.60
2018-10-07T03:43:43.830Z,14.70
2018-10-07T03:46:14.170Z,14.60
2018-10-07T03:48:44.462Z,14.50
2018-10-07T03:51:14.737Z,14.50
2018-10-07T03:53:45.004Z,14.40
2018-10-07T03:56:15.303Z,14.40
2018-10-07T03:58:45.572Z,14.50
2018-10-07T04:01:16.218Z,14.50
2018-10-07T04:03:46.496Z,14.50
2018-10-07T04:06:16.818Z,14.60
2018-10-07T04:08:47.097Z,14.60
2018-10-07T04:11:17.362Z,14.60
2018-10-07T04:13:47.691Z,14.60
2018-10-07T04:16:17.979Z,14.60
2018-10-07T04:18:48.650Z,14.50
2018-10-07T04:21:18.903Z,14.40
2018-10-07T04:23:49.346Z,14.40
2018-10-07T04:26:19.622Z,14.40
2018-10-07T04:28:50.300Z,14.40
2018-10-07T04:31:20.851Z,14.40
2018-10-07T04:33:51.175Z,14.50
2018-10-07T04:36:22.235Z,14.50
2018-10-07T04:38:52.673Z,14.50
2018-10-07T04:41:22.974Z,14.40
2018-10-07T04:43:53.303Z,14.40
2018-10-07T04:46:23.951Z,14.40
2018-10-07T04:48:54.365Z,14.40
2018-10-07T04:51:24.720Z,14.40
2018-10-07T04:53:55.066Z,14.40
2018-10-07T04:56:25.755Z,14.40
2018-10-07T04:58:56.106Z,14.40
2018-10-07T05:01:26.405Z,14.30
2018-10-07T05:03:56.995Z,14.40
2018-10-07T05:06:33.287Z,14.40
2018-10-07T05:09:05.883Z,14.40
2018-10-07T05:11:36.615Z,14.50
2018-10-07T05:14:08.903Z,14.50
2018-10-07T05:16:44.483Z,14.50
2018-10-07T05:19:14.786Z,14.50
2018-10-07T05:21:45.182Z,14.50
2018-10-07T05:24:15.468Z,14.60
2018-10-07T05:26:45.844Z,14.60
2018-10-07T05:29:16.133Z,14.60
2018-10-07T05:31:46.433Z,14.50
2018-10-07T05:34:16.723Z,14.40
2018-10-07T05:36:47.022Z,14.40
2018-10-07T05:39:17.405Z,14.30
2018-10-07T05:41:47.710Z,14.20
2018-10-07T05:44:18.313Z,14.20
2018-10-07T05:46:48.641Z,14.20
2018-10-07T05:49:18.986Z,14.30
2018-10-07T05:51:49.629Z,14.20
2018-10-07T05:54:20.095Z,14.10
2018-10-07T05:56:50.389Z,14.10
2018-10-07T05:59:21.220Z,14.10
2018-10-07T06:01:51.702Z,14.00
2018-10-07T06:04:40.306Z,14.00
2018-10-07T06:07:10.690Z,14.00
2018-10-07T06:09:41.372Z,14.00
2018-10-07T06:12:11.689Z,14.10
2018-10-07T06:14:59.001Z,14.10
2018-10-07T06:17:29.282Z,14.20
2018-10-07T06:19:59.608Z,14.20
2018-10-07T06:22:30.219Z,14.30
2018-10-07T06:25:00.898Z,14.40
2018-10-07T06:27:44.139Z,14.60
2018-10-07T06:30:18.099Z,14.80
2018-10-07T06:32:48.622Z,15.00
2018-10-07T06:35:18.991Z,15.20
2018-10-07T06:37:49.413Z,15.40
2018-10-07T06:40:19.744Z,15.60
2018-10-07T06:42:50.090Z,15.80
2018-10-07T06:45:20.512Z,16.00
2018-10-07T06:47:50.864Z,16.20
2018-10-07T06:50:21.197Z,16.40
2018-10-07T06:52:51.695Z,16.50
2018-10-07T06:55:22.051Z,16.70
2018-10-07T06:57:52.402Z,16.90
2018-10-07T07:00:22.811Z,17.10
2018-10-07T07:02:53.078Z,17.20
2018-10-07T07:05:23.434Z,17.30
2018-10-07T07:07:53.833Z,17.60
2018-10-07T07:10:24.379Z,17.70
2018-10-07T07:12:54.824Z,18.00
2018-10-07T07:15:25.328Z,18.20
2018-10-07T07:17:55.730Z,18.50
2018-10-07T07:20:26.139Z,18.70
2018-10-07T07:22:56.598Z,18.90
2018-10-07T07:25:27.186Z,19.10
2018-10-07T07:27:57.811Z,19.20
2018-10-07T07:30:28.286Z,19.30
2018-10-07T07:32:58.776Z,19.40
2018-10-07T07:35:29.122Z,19.50
2018-10-07T07:37:59.543Z,19.60
2018-10-07T07:40:29.942Z,19.60
2018-10-07T07:43:00.555Z,19.60
2018-10-07T07:45:31.167Z,19.80
2018-10-07T07:48:01.495Z,19.90
2018-10-07T07:50:32.486Z,20.00
2018-10-07T07:53:03.453Z,20.30
2018-10-07T07:55:33.797Z,20.60
2018-10-07T07:58:04.214Z,20.90
2018-10-07T08:00:34.901Z,21.10
2018-10-07T08:03:05.499Z,21.30
2018-10-07T08:05:36.382Z,21.70
2018-10-07T08:08:09.126Z,22.00
2018-10-07T08:10:39.570Z,22.40
2018-10-07T08:13:10.043Z,22.80
2018-10-07T08:15:40.748Z,23.20
2018-10-07T08:18:11.051Z,23.60
2018-10-07T08:20:41.343Z,24.00
2018-10-07T08:23:11.669Z,24.10
2018-10-07T08:25:41.970Z,24.40
2018-10-07T08:28:12.307Z,24.70
2018-10-07T08:30:42.715Z,25.00
2018-10-07T08:33:13.083Z,25.30
2018-10-07T08:35:43.386Z,25.60
2018-10-07T08:38:13.650Z,25.70
2018-10-07T08:40:44.096Z,25.60
2018-10-07T08:43:14.373Z,25.80
2018-10-07T08:45:44.992Z,25.90
2018-10-07T08:48:15.239Z,26.00
2018-10-07T08:50:45.647Z,26.00
2018-10-07T08:53:16.055Z,26.00
2018-10-07T08:55:46.355Z,26.00
2018-10-07T08:58:16.659Z,26.00
2018-10-07T09:00:46.962Z,25.90
2018-10-07T09:03:17.213Z,26.00
2018-10-07T09:05:47.500Z,26.20
2018-10-07T09:08:17.904Z,26.20
2018-10-07T09:10:48.309Z,26.60
2018-10-07T09:13:18.622Z,27.20
2018-10-07T09:15:48.935Z,27.80
2018-10-07T09:18:19.441Z,28.10
2018-10-07T09:20:50.101Z,28.20
2018-10-07T09:23:21.154Z,28.60
2018-10-07T09:25:51.437Z,29.00
2018-10-07T09:28:22.579Z,29.20
2018-10-07T09:30:53.126Z,29.70
2018-10-07T09:33:23.510Z,30.10
2018-10-07T09:35:55.045Z,30.40
2018-10-07T09:38:25.369Z,30.50
2018-10-07T09:40:55.786Z,30.50
2018-10-07T09:43:26.044Z,30.40
2018-10-07T09:45:56.530Z,30.70
2018-10-07T09:48:26.868Z,30.80
2018-10-07T09:50:57.212Z,30.40
2018-10-07T09:53:27.480Z,29.90
2018-10-07T09:55:57.759Z,30.20
2018-10-07T09:58:28.015Z,30.80
2018-10-07T10:00:58.330Z,31.70
2018-10-07T10:03:28.731Z,32.30
2018-10-07T10:05:59.466Z,33.10
2018-10-07T10:08:30.176Z,33.70
2018-10-07T10:11:00.876Z,33.90
2018-10-07T10:13:31.136Z,33.80
2018-10-07T10:16:01.510Z,33.50
2018-10-07T10:18:47.572Z,32.40
2018-10-07T10:21:33.922Z,31.30
2018-10-07T10:24:43.916Z,30.50
2018-10-07T10:27:55.326Z,30.00
2018-10-07T10:32:42.665Z,29.40
2018-10-07T10:35:31.636Z,28.80
2018-10-07T10:38:32.557Z,29.90
2018-10-07T10:41:14.306Z,30.20
2018-10-07T10:44:00.242Z,29.40
2018-10-07T10:47:01.662Z,28.60
2018-10-07T10:50:03.436Z,28.00
2018-10-07T10:52:48.159Z,27.30
2018-10-07T10:55:31.183Z,26.70
2018-10-07T10:58:07.970Z,26.20
2018-10-07T11:00:51.991Z,25.80
2018-10-07T11:04:05.243Z,25.50
2018-10-07T11:06:49.636Z,25.20
2018-10-07T11:09:37.091Z,25.00
2018-10-07T11:12:15.494Z,24.90
2018-10-07T11:14:56.659Z,24.70
2018-10-07T11:18:48.679Z,24.50
2018-10-07T11:23:44.817Z,24.40
2018-10-07T11:26:28.509Z,24.30
2018-10-07T11:30:14.501Z,24.30
2018-10-07T11:35:08.897Z,24.30
2018-10-07T11:37:48.659Z,24.40
2018-10-07T11:40:40.711Z,24.50
2018-10-07T11:43:20.929Z,24.70
2018-10-07T11:46:01.306Z,24.90
2018-10-07T11:48:53.298Z,25.20
2018-10-07T11:53:35.902Z,25.30
2018-10-07T11:56:06.268Z,25.50
2018-10-07T11:58:36.568Z,26.50
2018-10-07T12:01:06.946Z,28.60
2018-10-07T12:03:37.346Z,30.60
2018-10-07T12:06:07.755Z,32.30
2018-10-07T12:08:38.309Z,33.60
2018-10-07T12:11:08.952Z,34.70
2018-10-07T12:13:39.334Z,35.30
2018-10-07T12:16:09.716Z,35.50
2018-10-07T12:18:39.979Z,35.80
2018-10-07T12:21:10.468Z,36.20
2018-10-07T12:23:40.723Z,36.00
2018-10-07T12:26:11.361Z,36.00
2018-10-07T12:28:45.480Z,36.20
2018-10-07T12:31:15.743Z,36.80
2018-10-07T12:33:46.040Z,37.50
2018-10-07T12:36:18.783Z,38.00
2018-10-07T12:38:50.308Z,37.80
2018-10-07T12:41:20.616Z,36.70
2018-10-07T12:43:51.942Z,35.40
2018-10-07T12:46:23.591Z,34.50
2018-10-07T12:48:55.182Z,33.50
2018-10-07T12:51:26.523Z,32.40
2018-10-07T12:53:56.975Z,31.50
2018-10-07T12:56:27.790Z,30.80
2018-10-07T12:58:58.735Z,30.00
2018-10-07T13:01:29.773Z,29.30
2018-10-07T13:04:00.762Z,29.10
2018-10-07T13:06:31.065Z,28.80
2018-10-07T13:09:01.388Z,28.70
2018-10-07T13:11:31.656Z,29.00
2018-10-07T13:14:01.963Z,29.70
2018-10-07T13:16:32.237Z,30.40
2018-10-07T13:19:02.608Z,31.70
2018-10-07T13:21:33.563Z,33.70
2018-10-07T13:24:04.188Z,35.30
2018-10-07T13:26:34.470Z,36.80
2018-10-07T13:29:05.103Z,37.80
2018-10-07T13:31:35.429Z,38.30
2018-10-07T13:34:05.801Z,39.00
2018-10-07T13:36:37.327Z,39.10
2018-10-07T13:39:10.753Z,39.40
2018-10-07T13:41:41.591Z,39.80
2018-10-07T13:44:14.401Z,39.80
2018-10-07T13:46:44.856Z,39.40
2018-10-07T13:49:15.162Z,38.60
2018-10-07T13:51:45.456Z,37.80
2018-10-07T13:54:15.790Z,37.70
2018-10-07T13:56:46.076Z,37.50
2018-10-07T13:59:16.531Z,37.00
2018-10-07T14:01:46.894Z,36.70
2018-10-07T14:04:17.210Z,37.30
2018-10-07T14:06:47.570Z,37.80
2018-10-07T14:09:24.091Z,38.40
2018-10-07T14:14:46.975Z,39.30
2018-10-07T14:17:18.210Z,39.40
2018-10-07T14:19:48.722Z,39.20
2018-10-07T14:22:20.889Z,38.50
2018-10-07T14:24:51.631Z,38.20
2018-10-07T14:27:22.081Z,37.10
2018-10-07T14:29:53.440Z,36.40
2018-10-07T14:32:25.282Z,36.60
2018-10-07T14:34:55.962Z,37.20
2018-10-07T14:37:26.365Z,37.50
2018-10-07T14:39:56.975Z,37.70
2018-10-07T14:42:27.250Z,37.30
2018-10-07T14:44:57.678Z,36.50
2018-10-07T14:47:28.088Z,36.00
2018-10-07T14:49:58.446Z,35.70
2018-10-07T14:52:28.825Z,35.80
2018-10-07T14:54:59.317Z,36.00
2018-10-07T14:57:29.595Z,35.20
2018-10-07T15:00:01.191Z,33.20
2018-10-07T15:02:33.430Z,31.20
2018-10-07T15:05:05.362Z,29.90
2018-10-07T15:07:35.719Z,28.30
2018-10-07T15:10:06.760Z,27.20
2018-10-07T15:12:37.186Z,26.10
2018-10-07T15:15:07.731Z,25.30
2018-10-07T15:17:38.090Z,24.60
2018-10-07T15:20:08.445Z,24.10
2018-10-07T15:22:38.750Z,23.60
2018-10-07T15:25:09.079Z,23.30
2018-10-07T15:27:39.501Z,22.90
2018-10-07T15:30:10.228Z,22.70
2018-10-07T15:32:40.692Z,22.40
2018-10-07T15:35:11.059Z,22.10
2018-10-07T15:37:42.277Z,22.00
2018-10-07T15:40:14.728Z,21.90
2018-10-07T15:42:45.548Z,22.00
2018-10-07T15:45:15.902Z,22.00
2018-10-07T15:47:46.456Z,22.00
2018-10-07T15:50:16.739Z,22.10
2018-10-07T15:52:46.985Z,22.40
2018-10-07T15:55:18.508Z,22.60
2018-10-07T15:57:50.411Z,22.60
2018-10-07T16:00:23.963Z,22.50
2018-10-07T16:02:55.483Z,22.40
2018-10-07T16:05:25.974Z,22.20
2018-10-07T16:07:56.278Z,21.90
2018-10-07T16:10:26.569Z,21.60
2018-10-07T16:12:56.899Z,21.40
2018-10-07T16:15:27.235Z,21.30
2018-10-07T16:17:59.359Z,21.20
2018-10-07T16:20:30.732Z,21.20
2018-10-07T16:23:01.054Z,21.20
2018-10-07T16:25:31.400Z,21.10
2018-10-07T16:28:01.681Z,21.10
2018-10-07T16:30:31.985Z,20.90
2018-10-07T16:33:02.234Z,20.80
2018-10-07T16:35:32.555Z,20.80
2018-10-07T16:38:02.888Z,20.70
2018-10-07T16:40:33.262Z,20.60
2018-10-07T16:43:03.618Z,20.40
2018-10-07T16:45:34.156Z,20.40
2018-10-07T16:48:04.386Z,20.30
2018-10-07T16:50:35.119Z,20.20
2018-10-07T16:53:06.412Z,20.10
2018-10-07T16:55:36.774Z,19.90
2018-10-07T16:58:07.602Z,19.80
2018-10-07T17:00:37.974Z,19.80
2018-10-07T17:03:08.231Z,19.60
2018-10-07T17:05:38.529Z,19.50
2018-10-07T17:08:08.897Z,19.40
2018-10-07T17:10:39.350Z,19.30
2018-10-07T17:13:09.700Z,19.10
2018-10-07T17:15:40.082Z,19.00
2018-10-07T17:18:10.562Z,18.90
2018-10-07T17:20:40.950Z,18.70
2018-10-07T17:23:11.353Z,18.60
2018-10-07T17:25:41.706Z,18.50
2018-10-07T17:28:11.994Z,18.40
2018-10-07T17:30:42.347Z,18.30
2018-10-07T17:33:12.617Z,18.30
2018-10-07T17:35:43.087Z,18.20
2018-10-07T17:38:13.992Z,18.20
2018-10-07T17:40:44.723Z,18.20
2018-10-07T17:43:15.006Z,18.00
2018-10-07T17:45:45.289Z,18.00
2018-10-07T17:48:15.647Z,18.00
2018-10-07T17:50:45.858Z,17.90
2018-10-07T17:53:16.610Z,17.80
2018-10-07T17:55:46.895Z,17.80
2018-10-07T17:58:17.165Z,17.80
2018-10-07T18:00:47.480Z,17.80
2018-10-07T18:03:17.841Z,17.70
2018-10-07T18:05:48.070Z,17.80
2018-10-07T18:08:18.431Z,17.80
2018-10-07T18:10:49.035Z,17.80
2018-10-07T18:13:19.366Z,17.70
2018-10-07T18:15:50.535Z,17.70
2018-10-07T18:18:21.225Z,17.70
2018-10-07T18:20:51.610Z,17.80
2018-10-07T18:23:21.951Z,17.90
2018-10-07T18:25:52.338Z,18.00
2018-10-07T18:28:22.619Z,18.00
2018-10-07T18:30:52.969Z,18.00
2018-10-07T18:33:23.248Z,18.00
2018-10-07T18:35:53.557Z,18.00
2018-10-07T18:38:23.911Z,18.00
2018-10-07T18:40:54.246Z,18.00
2018-10-07T18:43:24.726Z,17.90
2018-10-07T18:45:55.074Z,17.90
2018-10-07T18:48:25.754Z,17.70
2018-10-07T18:50:56.092Z,17.60
2018-10-07T18:53:26.674Z,17.60
2018-10-07T18:55:57.186Z,17.60
2018-10-07T18:58:27.480Z,17.70
2018-10-07T19:00:57.975Z,17.70
2018-10-07T19:03:28.463Z,17.70
2018-10-07T19:05:59.119Z,17.60
2018-10-07T19:08:29.611Z,17.50
2018-10-07T19:10:59.899Z,17.40
2018-10-07T19:13:30.323Z,17.30
2018-10-07T19:16:00.706Z,17.30
2018-10-07T19:18:31.018Z,17.20
2018-10-07T19:21:01.504Z,17.20
2018-10-07T19:23:32.057Z,17.10
2018-10-07T19:26:04.035Z,17.10
2018-10-07T19:28:34.942Z,17.10
2018-10-07T19:31:05.278Z,17.00
2018-10-07T19:33:35.514Z,17.00
2018-10-07T19:36:07.126Z,16.90
2018-10-07T19:38:38.594Z,16.90
2018-10-07T19:41:09.389Z,16.80
2018-10-07T19:43:40.850Z,16.70
2018-10-07T19:46:11.175Z,16.60
2018-10-07T19:48:41.676Z,16.60
2018-10-07T19:51:12.135Z,16.60
2018-10-07T19:53:42.482Z,16.60
2018-10-07T19:56:13.099Z,16.50
2018-10-07T19:58:44.763Z,16.50
2018-10-07T20:01:15.256Z,16.20
2018-10-07T20:03:45.615Z,16.20
2018-10-07T20:06:15.970Z,16.20
2018-10-07T20:08:46.322Z,16.00
2018-10-07T20:11:16.615Z,16.00
2018-10-07T20:13:46.921Z,16.00
2018-10-07T20:16:17.594Z,15.90
2018-10-07T20:18:47.948Z,15.70
2018-10-07T20:21:18.310Z,15.70
2018-10-07T20:23:48.731Z,15.70
2018-10-07T20:26:19.581Z,15.80
2018-10-07T20:28:49.967Z,15.80
2018-10-07T20:31:21.992Z,15.70
2018-10-07T20:33:53.945Z,15.80
2018-10-07T20:36:27.128Z,15.80
2018-10-07T20:38:58.537Z,15.90
2018-10-07T20:41:29.476Z,15.70
2018-10-07T20:44:00.834Z,15.70
2018-10-07T20:46:31.310Z,15.70
2018-10-07T20:49:02.344Z,15.70
2018-10-07T20:51:32.877Z,15.70
2018-10-07T20:54:03.518Z,15.70
2018-10-07T20:56:34.478Z,15.60
2018-10-07T20:59:04.803Z,15.60
2018-10-07T21:01:36.638Z,15.60
2018-10-07T21:04:08.514Z,15.50
2018-10-07T21:06:39.876Z,15.50
2018-10-07T21:09:12.828Z,15.50
2018-10-07T21:11:43.140Z,15.50
2018-10-07T21:14:13.722Z,15.40
2018-10-07T21:16:44.285Z,15.30
2018-10-07T21:19:15.167Z,15.30
2018-10-07T21:21:45.741Z,15.30
2018-10-07T21:24:16.338Z,15.30
2018-10-07T21:26:46.534Z,15.30
2018-10-07T21:29:16.957Z,15.20
2018-10-07T21:31:47.293Z,15.10
2018-10-07T21:34:17.687Z,15.00
2018-10-07T21:36:49.790Z,15.00
2018-10-07T21:39:20.054Z,15.00
2018-10-07T21:41:50.539Z,15.00
2018-10-07T21:44:24.107Z,15.00
2018-10-07T21:46:56.031Z,15.00
2018-10-07T21:49:26.882Z,15.00
2018-10-07T21:52:00.965Z,15.00
2018-10-07T21:54:32.361Z,15.00
2018-10-07T21:57:02.795Z,14.90
2018-10-07T21:59:33.599Z,14.80
2018-10-07T22:02:04.378Z,14.70
2018-10-07T22:04:34.844Z,14.70
2018-10-07T22:07:05.526Z,14.50
2018-10-07T22:09:35.847Z,14.50
2018-10-07T22:12:07.206Z,14.50
2018-10-07T22:14:37.941Z,14.50
2018-10-07T22:17:08.337Z,14.50
2018-10-07T22:19:38.785Z,14.50
2018-10-07T22:22:10.326Z,14.50
2018-10-07T22:24:41.114Z,14.50
2018-10-07T22:27:11.429Z,14.50
2018-10-07T22:29:41.886Z,14.50
2018-10-07T22:32:12.265Z,14.30
2018-10-07T22:34:43.292Z,14.40
2018-10-07T22:37:15.722Z,14.40
2018-10-07T22:39:46.300Z,14.40
2018-10-07T22:42:16.827Z,14.30
2018-10-07T22:44:47.219Z,14.30
2018-10-07T22:47:17.826Z,14.20
2018-10-07T22:49:48.232Z,14.20
2018-10-07T22:52:18.519Z,14.20
2018-10-07T22:54:48.871Z,14.20
2018-10-07T22:57:19.176Z,14.20
2018-10-07T22:59:50.551Z,14.20
2018-10-07T23:02:20.888Z,14.10
2018-10-07T23:04:51.389Z,14.10
2018-10-07T23:07:22.088Z,14.10
2018-10-07T23:09:52.465Z,14.10
2018-10-07T23:12:23.419Z,14.10
2018-10-07T23:14:53.904Z,14.10
2018-10-07T23:17:26.679Z,14.20
2018-10-07T23:19:57.060Z,14.20
2018-10-07T23:22:27.703Z,14.10
2018-10-07T23:24:58.109Z,14.10
2018-10-07T23:27:28.383Z,14.00
2018-10-07T23:29:58.751Z,14.00
2018-10-07T23:32:29.159Z,14.10
2018-10-07T23:34:59.664Z,14.00
2018-10-07T23:37:30.149Z,14.00
2018-10-07T23:40:00.470Z,14.00
2018-10-07T23:42:30.843Z,13.90
2018-10-07T23:45:01.147Z,13.80
2018-10-07T23:47:31.462Z,13.80
2018-10-07T23:50:01.849Z,13.80
2018-10-07T23:52:32.326Z,13.70
2018-10-07T23:55:02.657Z,13.70
2018-10-07T23:57:33.083Z,13.70
